sensor_id;sensor_type;location;lat;lon;timestamp;P1;durP1;ratioP1;P2;durP2;ratioP2
29246;SDS011;16272;48.188;9.964;2023-02-25T00:02:04;6.30;;;1.33;;
29246;SDS011;16272;48.188;9.964;2023-02-25T00:04:29;4.68;;;1.00;;
29246;SDS011;16272;48.188;9.964;2023-02-25T00:06:55;4.83;;;1.07;;
29246;SDS011;16272;48.188;9.964;2023-02-25T00:09:20;4.43;;;1.00;;
29246;SDS011;16272;48.188;9.964;2023-02-25T00:11:46;6.13;;;1.23;;
29246;SDS011;16272;48.188;9.964;2023-02-25T00:14:11;4.37;;;0.93;;
29246;SDS011;16272;48.188;9.964;2023-02-25T00:16:36;5.47;;;1.20;;
29246;SDS011;16272;48.188;9.964;2023-02-25T00:19:02;5.00;;;1.20;;
29246;SDS011;16272;48.188;9.964;2023-02-25T00:21:27;4.50;;;0.90;;
29246;SDS011;16272;48.188;9.964;2023-02-25T00:23:53;4.00;;;0.85;;
29246;SDS011;16272;48.188;9.964;2023-02-25T00:26:19;6.70;;;1.57;;
29246;SDS011;16272;48.188;9.964;2023-02-25T00:28:45;5.55;;;1.27;;
29246;SDS011;16272;48.188;9.964;2023-02-25T00:31:12;5.20;;;1.40;;
29246;SDS011;16272;48.188;9.964;2023-02-25T00:33:39;6.35;;;1.30;;
29246;SDS011;16272;48.188;9.964;2023-02-25T00:36:06;7.53;;;1.55;;
29246;SDS011;16272;48.188;9.964;2023-02-25T00:38:34;8.50;;;1.95;;
29246;SDS011;16272;48.188;9.964;2023-02-25T00:41:03;6.18;;;1.50;;
29246;SDS011;16272;48.188;9.964;2023-02-25T00:43:41;6.53;;;1.70;;
29246;SDS011;16272;48.188;9.964;2023-02-25T00:46:11;6.95;;;1.58;;
29246;SDS011;16272;48.188;9.964;2023-02-25T00:48:37;6.47;;;1.98;;
29246;SDS011;16272;48.188;9.964;2023-02-25T00:51:13;7.27;;;1.70;;
29246;SDS011;16272;48.188;9.964;2023-02-25T00:53:41;7.10;;;1.70;;
29246;SDS011;16272;48.188;9.964;2023-02-25T00:56:07;6.93;;;2.00;;
29246;SDS011;16272;48.188;9.964;2023-02-25T00:58:35;6.22;;;1.80;;
29246;SDS011;16272;48.188;9.964;2023-02-25T01:01:02;6.38;;;1.58;;
29246;SDS011;16272;48.188;9.964;2023-02-25T01:03:30;6.33;;;1.70;;
29246;SDS011;16272;48.188;9.964;2023-02-25T01:05:56;11.88;;;4.60;;
29246;SDS011;16272;48.188;9.964;2023-02-25T01:08:21;8.40;;;2.40;;
29246;SDS011;16272;48.188;9.964;2023-02-25T01:10:48;8.43;;;2.40;;
29246;SDS011;16272;48.188;9.964;2023-02-25T01:13:13;6.78;;;2.17;;
29246;SDS011;16272;48.188;9.964;2023-02-25T01:15:40;8.48;;;2.40;;
29246;SDS011;16272;48.188;9.964;2023-02-25T01:18:05;8.60;;;2.83;;
29246;SDS011;16272;48.188;9.964;2023-02-25T01:20:31;9.20;;;2.75;;
29246;SDS011;16272;48.188;9.964;2023-02-25T01:23:01;8.73;;;2.70;;
29246;SDS011;16272;48.188;9.964;2023-02-25T01:25:26;8.37;;;2.37;;
29246;SDS011;16272;48.188;9.964;2023-02-25T01:27:54;9.73;;;3.13;;
29246;SDS011;16272;48.188;9.964;2023-02-25T01:30:21;9.57;;;3.33;;
29246;SDS011;16272;48.188;9.964;2023-02-25T01:32:47;9.68;;;2.95;;
29246;SDS011;16272;48.188;9.964;2023-02-25T01:35:12;9.77;;;2.97;;
29246;SDS011;16272;48.188;9.964;2023-02-25T01:37:38;10.10;;;3.27;;
29246;SDS011;16272;48.188;9.964;2023-02-25T01:40:03;8.67;;;2.53;;
29246;SDS011;16272;48.188;9.964;2023-02-25T01:42:29;11.88;;;3.50;;
29246;SDS011;16272;48.188;9.964;2023-02-25T01:45:18;10.97;;;3.37;;
29246;SDS011;16272;48.188;9.964;2023-02-25T01:47:49;9.95;;;3.17;;
29246;SDS011;16272;48.188;9.964;2023-02-25T01:50:19;11.93;;;4.15;;
29246;SDS011;16272;48.188;9.964;2023-02-25T01:52:47;10.17;;;3.53;;
29246;SDS011;16272;48.188;9.964;2023-02-25T01:55:13;8.43;;;2.55;;
29246;SDS011;16272;48.188;9.964;2023-02-25T01:57:38;10.60;;;3.60;;
29246;SDS011;16272;48.188;9.964;2023-02-25T02:00:05;9.97;;;2.97;;
29246;SDS011;16272;48.188;9.964;2023-02-25T02:02:36;12.60;;;3.78;;
29246;SDS011;16272;48.188;9.964;2023-02-25T02:05:02;11.10;;;3.70;;
29246;SDS011;16272;48.188;9.964;2023-02-25T02:07:28;9.77;;;3.00;;
29246;SDS011;16272;48.188;9.964;2023-02-25T02:09:54;11.07;;;3.25;;
29246;SDS011;16272;48.188;9.964;2023-02-25T02:12:20;11.13;;;4.00;;
29246;SDS011;16272;48.188;9.964;2023-02-25T02:14:55;9.90;;;3.35;;
29246;SDS011;16272;48.188;9.964;2023-02-25T02:20:08;10.82;;;3.60;;
29246;SDS011;16272;48.188;9.964;2023-02-25T02:31:28;10.32;;;3.42;;
29246;SDS011;16272;48.188;9.964;2023-02-25T02:36:58;12.27;;;3.50;;
29246;SDS011;16272;48.188;9.964;2023-02-25T02:48:05;12.32;;;4.43;;
29246;SDS011;16272;48.188;9.964;2023-02-25T02:50:38;12.18;;;3.92;;
29246;SDS011;16272;48.188;9.964;2023-02-25T02:53:51;13.40;;;4.30;;
29246;SDS011;16272;48.188;9.964;2023-02-25T02:56:01;12.35;;;4.63;;
29246;SDS011;16272;48.188;9.964;2023-02-25T02:58:31;13.30;;;3.72;;
29246;SDS011;16272;48.188;9.964;2023-02-25T03:01:13;14.30;;;4.70;;
29246;SDS011;16272;48.188;9.964;2023-02-25T03:03:43;12.60;;;4.03;;
29246;SDS011;16272;48.188;9.964;2023-02-25T03:06:11;13.87;;;3.87;;
29246;SDS011;16272;48.188;9.964;2023-02-25T03:08:45;12.07;;;3.78;;
29246;SDS011;16272;48.188;9.964;2023-02-25T03:11:13;12.45;;;4.15;;
29246;SDS011;16272;48.188;9.964;2023-02-25T03:13:39;11.48;;;3.85;;
29246;SDS011;16272;48.188;9.964;2023-02-25T03:16:06;13.30;;;3.80;;
29246;SDS011;16272;48.188;9.964;2023-02-25T03:18:38;12.90;;;3.70;;
29246;SDS011;16272;48.188;9.964;2023-02-25T03:21:12;12.38;;;4.00;;
29246;SDS011;16272;48.188;9.964;2023-02-25T03:23:45;11.73;;;3.85;;
29246;SDS011;16272;48.188;9.964;2023-02-25T03:26:23;11.63;;;3.97;;
29246;SDS011;16272;48.188;9.964;2023-02-25T03:28:55;12.07;;;3.30;;
29246;SDS011;16272;48.188;9.964;2023-02-25T03:31:23;13.25;;;4.10;;
29246;SDS011;16272;48.188;9.964;2023-02-25T03:33:59;12.55;;;3.65;;
29246;SDS011;16272;48.188;9.964;2023-02-25T03:36:36;13.10;;;3.93;;
29246;SDS011;16272;48.188;9.964;2023-02-25T03:39:07;11.93;;;3.90;;
29246;SDS011;16272;48.188;9.964;2023-02-25T03:41:37;12.27;;;4.00;;
29246;SDS011;16272;48.188;9.964;2023-02-25T03:44:07;11.88;;;3.38;;
29246;SDS011;16272;48.188;9.964;2023-02-25T03:46:36;12.48;;;3.78;;
29246;SDS011;16272;48.188;9.964;2023-02-25T03:49:05;13.63;;;4.30;;
29246;SDS011;16272;48.188;9.964;2023-02-25T03:51:32;14.15;;;4.30;;
29246;SDS011;16272;48.188;9.964;2023-02-25T03:53:59;11.93;;;3.80;;
29246;SDS011;16272;48.188;9.964;2023-02-25T03:56:26;11.63;;;3.58;;
29246;SDS011;16272;48.188;9.964;2023-02-25T03:58:52;14.27;;;3.80;;
29246;SDS011;16272;48.188;9.964;2023-02-25T04:01:22;12.53;;;4.27;;
29246;SDS011;16272;48.188;9.964;2023-02-25T04:03:51;13.82;;;3.75;;
29246;SDS011;16272;48.188;9.964;2023-02-25T04:06:19;12.03;;;3.70;;
29246;SDS011;16272;48.188;9.964;2023-02-25T04:08:46;13.75;;;4.22;;
29246;SDS011;16272;48.188;9.964;2023-02-25T04:11:12;12.83;;;4.50;;
29246;SDS011;16272;48.188;9.964;2023-02-25T04:13:37;16.90;;;4.90;;
29246;SDS011;16272;48.188;9.964;2023-02-25T04:16:03;14.93;;;4.87;;
29246;SDS011;16272;48.188;9.964;2023-02-25T04:18:28;12.43;;;4.40;;
29246;SDS011;16272;48.188;9.964;2023-02-25T04:20:53;14.17;;;4.30;;
29246;SDS011;16272;48.188;9.964;2023-02-25T04:23:19;13.70;;;4.63;;
29246;SDS011;16272;48.188;9.964;2023-02-25T04:25:44;13.20;;;4.60;;
29246;SDS011;16272;48.188;9.964;2023-02-25T04:28:10;13.03;;;4.37;;
29246;SDS011;16272;48.188;9.964;2023-02-25T04:30:35;13.80;;;4.07;;
29246;SDS011;16272;48.188;9.964;2023-02-25T04:33:01;13.37;;;4.43;;
29246;SDS011;16272;48.188;9.964;2023-02-25T04:35:27;13.10;;;4.63;;
29246;SDS011;16272;48.188;9.964;2023-02-25T04:37:52;13.83;;;4.30;;
29246;SDS011;16272;48.188;9.964;2023-02-25T04:40:18;14.40;;;4.27;;
29246;SDS011;16272;48.188;9.964;2023-02-25T04:42:45;13.88;;;4.57;;
29246;SDS011;16272;48.188;9.964;2023-02-25T04:45:11;12.47;;;3.93;;
29246;SDS011;16272;48.188;9.964;2023-02-25T04:47:37;12.15;;;3.97;;
29246;SDS011;16272;48.188;9.964;2023-02-25T04:50:03;11.07;;;3.40;;
29246;SDS011;16272;48.188;9.964;2023-02-25T04:52:30;13.15;;;3.72;;
29246;SDS011;16272;48.188;9.964;2023-02-25T04:54:55;11.63;;;3.70;;
29246;SDS011;16272;48.188;9.964;2023-02-25T04:57:21;12.93;;;3.97;;
29246;SDS011;16272;48.188;9.964;2023-02-25T04:59:46;13.23;;;4.27;;
29246;SDS011;16272;48.188;9.964;2023-02-25T05:02:11;14.43;;;4.43;;
29246;SDS011;16272;48.188;9.964;2023-02-25T05:04:37;10.88;;;3.67;;
29246;SDS011;16272;48.188;9.964;2023-02-25T05:07:03;10.13;;;3.40;;
29246;SDS011;16272;48.188;9.964;2023-02-25T05:09:30;13.77;;;4.10;;
29246;SDS011;16272;48.188;9.964;2023-02-25T05:11:56;13.43;;;4.32;;
29246;SDS011;16272;48.188;9.964;2023-02-25T05:14:22;13.50;;;4.20;;
29246;SDS011;16272;48.188;9.964;2023-02-25T05:16:47;11.30;;;3.90;;
29246;SDS011;16272;48.188;9.964;2023-02-25T05:19:16;11.68;;;3.58;;
29246;SDS011;16272;48.188;9.964;2023-02-25T05:21:47;11.25;;;3.80;;
29246;SDS011;16272;48.188;9.964;2023-02-25T05:24:13;12.10;;;3.47;;
29246;SDS011;16272;48.188;9.964;2023-02-25T05:26:38;11.48;;;3.35;;
29246;SDS011;16272;48.188;9.964;2023-02-25T05:29:03;11.03;;;3.73;;
29246;SDS011;16272;48.188;9.964;2023-02-25T05:31:29;10.33;;;3.20;;
29246;SDS011;16272;48.188;9.964;2023-02-25T05:33:54;11.17;;;3.33;;
29246;SDS011;16272;48.188;9.964;2023-02-25T05:36:20;12.10;;;3.22;;
29246;SDS011;16272;48.188;9.964;2023-02-25T05:38:45;10.97;;;3.53;;
29246;SDS011;16272;48.188;9.964;2023-02-25T05:41:12;11.83;;;3.43;;
29246;SDS011;16272;48.188;9.964;2023-02-25T05:43:38;11.73;;;3.83;;
29246;SDS011;16272;48.188;9.964;2023-02-25T05:46:04;10.63;;;3.22;;
29246;SDS011;16272;48.188;9.964;2023-02-25T05:48:35;10.20;;;3.17;;
29246;SDS011;16272;48.188;9.964;2023-02-25T05:51:05;10.32;;;3.40;;
29246;SDS011;16272;48.188;9.964;2023-02-25T05:53:32;11.80;;;3.40;;
29246;SDS011;16272;48.188;9.964;2023-02-25T05:55:58;11.25;;;3.45;;
29246;SDS011;16272;48.188;9.964;2023-02-25T05:58:23;11.03;;;3.27;;
29246;SDS011;16272;48.188;9.964;2023-02-25T06:00:49;10.03;;;3.00;;
29246;SDS011;16272;48.188;9.964;2023-02-25T06:03:15;11.27;;;3.40;;
29246;SDS011;16272;48.188;9.964;2023-02-25T06:05:40;8.77;;;2.77;;
29246;SDS011;16272;48.188;9.964;2023-02-25T06:08:07;11.88;;;3.65;;
29246;SDS011;16272;48.188;9.964;2023-02-25T06:10:35;12.15;;;3.17;;
29246;SDS011;16272;48.188;9.964;2023-02-25T06:13:06;11.68;;;2.63;;
29246;SDS011;16272;48.188;9.964;2023-02-25T06:15:32;9.20;;;2.73;;
29246;SDS011;16272;48.188;9.964;2023-02-25T06:18:00;9.95;;;2.65;;
29246;SDS011;16272;48.188;9.964;2023-02-25T06:20:25;9.67;;;2.63;;
29246;SDS011;16272;48.188;9.964;2023-02-25T06:22:51;7.57;;;1.98;;
29246;SDS011;16272;48.188;9.964;2023-02-25T06:25:18;9.82;;;2.35;;
29246;SDS011;16272;48.188;9.964;2023-02-25T06:27:44;10.77;;;2.43;;
29246;SDS011;16272;48.188;9.964;2023-02-25T06:30:09;9.73;;;2.70;;
29246;SDS011;16272;48.188;9.964;2023-02-25T06:32:35;9.93;;;2.43;;
29246;SDS011;16272;48.188;9.964;2023-02-25T06:35:00;9.07;;;2.10;;
29246;SDS011;16272;48.188;9.964;2023-02-25T06:37:26;9.73;;;2.00;;
29246;SDS011;16272;48.188;9.964;2023-02-25T06:39:51;9.57;;;1.87;;
29246;SDS011;16272;48.188;9.964;2023-02-25T06:42:17;8.27;;;2.20;;
29246;SDS011;16272;48.188;9.964;2023-02-25T06:44:42;8.10;;;1.90;;
29246;SDS011;16272;48.188;9.964;2023-02-25T06:47:07;6.90;;;1.70;;
29246;SDS011;16272;48.188;9.964;2023-02-25T06:49:33;9.07;;;1.80;;
29246;SDS011;16272;48.188;9.964;2023-02-25T06:51:58;9.77;;;2.17;;
29246;SDS011;16272;48.188;9.964;2023-02-25T06:54:24;8.23;;;1.77;;
29246;SDS011;16272;48.188;9.964;2023-02-25T06:56:49;9.20;;;2.03;;
29246;SDS011;16272;48.188;9.964;2023-02-25T06:59:17;9.63;;;1.77;;
29246;SDS011;16272;48.188;9.964;2023-02-25T07:01:42;10.57;;;1.90;;
29246;SDS011;16272;48.188;9.964;2023-02-25T07:04:08;9.00;;;1.90;;
29246;SDS011;16272;48.188;9.964;2023-02-25T07:06:38;7.10;;;1.88;;
29246;SDS011;16272;48.188;9.964;2023-02-25T07:09:03;7.50;;;1.70;;
29246;SDS011;16272;48.188;9.964;2023-02-25T07:11:29;6.17;;;1.70;;
29246;SDS011;16272;48.188;9.964;2023-02-25T07:13:57;9.48;;;1.90;;
29246;SDS011;16272;48.188;9.964;2023-02-25T07:16:23;8.27;;;1.80;;
29246;SDS011;16272;48.188;9.964;2023-02-25T07:18:49;9.10;;;1.70;;
29246;SDS011;16272;48.188;9.964;2023-02-25T07:21:15;9.63;;;1.85;;
29246;SDS011;16272;48.188;9.964;2023-02-25T07:23:41;9.47;;;2.20;;
29246;SDS011;16272;48.188;9.964;2023-02-25T07:26:07;9.73;;;2.20;;
29246;SDS011;16272;48.188;9.964;2023-02-25T07:28:34;9.25;;;2.03;;
29246;SDS011;16272;48.188;9.964;2023-02-25T07:31:00;9.20;;;2.70;;
29246;SDS011;16272;48.188;9.964;2023-02-25T07:33:30;9.55;;;2.33;;
29246;SDS011;16272;48.188;9.964;2023-02-25T07:35:55;9.43;;;2.50;;
29246;SDS011;16272;48.188;9.964;2023-02-25T07:38:21;8.38;;;2.33;;
29246;SDS011;16272;48.188;9.964;2023-02-25T07:40:46;9.77;;;3.03;;
29246;SDS011;16272;48.188;9.964;2023-02-25T07:43:12;8.97;;;2.70;;
29246;SDS011;16272;48.188;9.964;2023-02-25T07:45:38;7.50;;;2.10;;
29246;SDS011;16272;48.188;9.964;2023-02-25T07:48:04;10.77;;;2.63;;
29246;SDS011;16272;48.188;9.964;2023-02-25T07:50:29;8.02;;;1.80;;
29246;SDS011;16272;48.188;9.964;2023-02-25T07:52:55;7.57;;;1.90;;
29246;SDS011;16272;48.188;9.964;2023-02-25T07:55:20;9.60;;;2.10;;
29246;SDS011;16272;48.188;9.964;2023-02-25T07:57:46;11.50;;;2.67;;
29246;SDS011;16272;48.188;9.964;2023-02-25T08:00:11;8.47;;;2.07;;
29246;SDS011;16272;48.188;9.964;2023-02-25T08:02:37;9.73;;;2.50;;
29246;SDS011;16272;48.188;9.964;2023-02-25T08:05:03;8.23;;;2.10;;
29246;SDS011;16272;48.188;9.964;2023-02-25T08:07:29;8.43;;;2.10;;
29246;SDS011;16272;48.188;9.964;2023-02-25T08:09:55;9.25;;;2.30;;
29246;SDS011;16272;48.188;9.964;2023-02-25T08:12:20;9.05;;;2.10;;
29246;SDS011;16272;48.188;9.964;2023-02-25T08:14:46;9.50;;;2.10;;
29246;SDS011;16272;48.188;9.964;2023-02-25T08:17:11;8.40;;;1.67;;
29246;SDS011;16272;48.188;9.964;2023-02-25T08:19:37;7.37;;;1.73;;
29246;SDS011;16272;48.188;9.964;2023-02-25T08:22:02;7.47;;;1.55;;
29246;SDS011;16272;48.188;9.964;2023-02-25T08:24:28;6.63;;;1.70;;
29246;SDS011;16272;48.188;9.964;2023-02-25T08:26:54;5.90;;;1.20;;
29246;SDS011;16272;48.188;9.964;2023-02-25T08:29:19;6.20;;;1.70;;
29246;SDS011;16272;48.188;9.964;2023-02-25T08:31:46;6.87;;;1.40;;
29246;SDS011;16272;48.188;9.964;2023-02-25T08:34:12;6.50;;;1.60;;
29246;SDS011;16272;48.188;9.964;2023-02-25T08:36:38;7.40;;;1.40;;
29246;SDS011;16272;48.188;9.964;2023-02-25T08:39:03;7.20;;;1.30;;
29246;SDS011;16272;48.188;9.964;2023-02-25T08:41:30;6.97;;;1.50;;
29246;SDS011;16272;48.188;9.964;2023-02-25T08:43:56;6.43;;;1.57;;
29246;SDS011;16272;48.188;9.964;2023-02-25T08:46:23;7.43;;;1.55;;
29246;SDS011;16272;48.188;9.964;2023-02-25T08:48:50;8.82;;;1.70;;
29246;SDS011;16272;48.188;9.964;2023-02-25T08:51:17;6.82;;;1.80;;
29246;SDS011;16272;48.188;9.964;2023-02-25T08:53:43;5.83;;;1.43;;
29246;SDS011;16272;48.188;9.964;2023-02-25T08:56:09;7.57;;;1.33;;
29246;SDS011;16272;48.188;9.964;2023-02-25T08:58:36;4.50;;;0.95;;
29246;SDS011;16272;48.188;9.964;2023-02-25T09:01:10;6.20;;;1.40;;
29246;SDS011;16272;48.188;9.964;2023-02-25T09:03:41;4.45;;;1.00;;
29246;SDS011;16272;48.188;9.964;2023-02-25T09:06:27;6.80;;;1.00;;
29246;SDS011;16272;48.188;9.964;2023-02-25T09:08:52;6.07;;;1.23;;
29246;SDS011;16272;48.188;9.964;2023-02-25T09:11:19;6.60;;;0.93;;
29246;SDS011;16272;48.188;9.964;2023-02-25T09:13:45;6.97;;;1.30;;
29246;SDS011;16272;48.188;9.964;2023-02-25T09:16:11;7.35;;;1.27;;
29246;SDS011;16272;48.188;9.964;2023-02-25T09:18:41;7.00;;;1.27;;
29246;SDS011;16272;48.188;9.964;2023-02-25T09:21:10;5.43;;;0.98;;
29246;SDS011;16272;48.188;9.964;2023-02-25T09:23:36;5.43;;;0.90;;
29246;SDS011;16272;48.188;9.964;2023-02-25T09:26:02;5.33;;;0.73;;
29246;SDS011;16272;48.188;9.964;2023-02-25T09:28:29;5.82;;;1.05;;
29246;SDS011;16272;48.188;9.964;2023-02-25T09:30:55;4.70;;;1.00;;
29246;SDS011;16272;48.188;9.964;2023-02-25T09:33:20;6.30;;;1.00;;
29246;SDS011;16272;48.188;9.964;2023-02-25T09:35:46;6.47;;;0.90;;
29246;SDS011;16272;48.188;9.964;2023-02-25T09:38:11;4.00;;;0.80;;
29246;SDS011;16272;48.188;9.964;2023-02-25T09:40:37;4.35;;;1.05;;
29246;SDS011;16272;48.188;9.964;2023-02-25T09:43:07;5.10;;;0.80;;
29246;SDS011;16272;48.188;9.964;2023-02-25T09:45:44;3.28;;;0.80;;
29246;SDS011;16272;48.188;9.964;2023-02-25T09:48:21;4.05;;;1.02;;
29246;SDS011;16272;48.188;9.964;2023-02-25T09:50:50;3.38;;;0.60;;
29246;SDS011;16272;48.188;9.964;2023-02-25T09:53:22;4.88;;;1.00;;
29246;SDS011;16272;48.188;9.964;2023-02-25T09:55:53;4.80;;;0.80;;
29246;SDS011;16272;48.188;9.964;2023-02-25T09:58:28;5.38;;;0.70;;
29246;SDS011;16272;48.188;9.964;2023-02-25T10:03:47;4.90;;;0.73;;
29246;SDS011;16272;48.188;9.964;2023-02-25T10:06:23;3.65;;;0.68;;
29246;SDS011;16272;48.188;9.964;2023-02-25T10:12:19;3.33;;;0.60;;
29246;SDS011;16272;48.188;9.964;2023-02-25T10:23:27;6.03;;;1.08;;
29246;SDS011;16272;48.188;9.964;2023-02-25T10:26:04;5.70;;;1.00;;
29246;SDS011;16272;48.188;9.964;2023-02-25T10:28:39;4.20;;;0.95;;
29246;SDS011;16272;48.188;9.964;2023-02-25T10:31:09;6.73;;;1.30;;
29246;SDS011;16272;48.188;9.964;2023-02-25T10:33:39;5.93;;;1.30;;
29246;SDS011;16272;48.188;9.964;2023-02-25T10:38:34;4.03;;;0.80;;
29246;SDS011;16272;48.188;9.964;2023-02-25T10:41:10;4.10;;;0.80;;
29246;SDS011;16272;48.188;9.964;2023-02-25T10:43:36;4.47;;;0.80;;
29246;SDS011;16272;48.188;9.964;2023-02-25T10:46:50;3.65;;;0.80;;
29246;SDS011;16272;48.188;9.964;2023-02-25T10:48:50;5.32;;;0.70;;
29246;SDS011;16272;48.188;9.964;2023-02-25T10:51:20;4.70;;;0.93;;
29246;SDS011;16272;48.188;9.964;2023-02-25T10:56:17;4.15;;;0.70;;
29246;SDS011;16272;48.188;9.964;2023-02-25T10:58:43;5.20;;;0.80;;
29246;SDS011;16272;48.188;9.964;2023-02-25T11:01:22;4.22;;;0.70;;
29246;SDS011;16272;48.188;9.964;2023-02-25T11:03:58;3.95;;;0.80;;
29246;SDS011;16272;48.188;9.964;2023-02-25T11:08:59;4.70;;;0.77;;
29246;SDS011;16272;48.188;9.964;2023-02-25T11:11:35;4.80;;;1.08;;
29246;SDS011;16272;48.188;9.964;2023-02-25T11:14:14;7.50;;;1.38;;
29246;SDS011;16272;48.188;9.964;2023-02-25T11:16:42;6.15;;;0.80;;
29246;SDS011;16272;48.188;9.964;2023-02-25T11:19:23;6.88;;;1.48;;
29246;SDS011;16272;48.188;9.964;2023-02-25T11:21:52;4.73;;;0.67;;
29246;SDS011;16272;48.188;9.964;2023-02-25T11:24:29;4.65;;;0.88;;
29246;SDS011;16272;48.188;9.964;2023-02-25T11:26:57;4.25;;;0.90;;
29246;SDS011;16272;48.188;9.964;2023-02-25T11:29:29;4.00;;;0.88;;
29246;SDS011;16272;48.188;9.964;2023-02-25T11:32:00;4.88;;;0.88;;
29246;SDS011;16272;48.188;9.964;2023-02-25T11:34:33;5.00;;;0.90;;
29246;SDS011;16272;48.188;9.964;2023-02-25T11:37:21;4.43;;;0.90;;
29246;SDS011;16272;48.188;9.964;2023-02-25T11:39:54;5.20;;;0.90;;
29246;SDS011;16272;48.188;9.964;2023-02-25T11:42:22;3.80;;;0.80;;
29246;SDS011;16272;48.188;9.964;2023-02-25T11:44:57;6.55;;;1.30;;
29246;SDS011;16272;48.188;9.964;2023-02-25T11:47:24;6.47;;;1.20;;
29246;SDS011;16272;48.188;9.964;2023-02-25T11:50:14;15.20;;;1.85;;
29246;SDS011;16272;48.188;9.964;2023-02-25T11:58:54;5.43;;;1.00;;
29246;SDS011;16272;48.188;9.964;2023-02-25T12:04:07;6.55;;;1.30;;
29246;SDS011;16272;48.188;9.964;2023-02-25T12:06:57;3.58;;;0.80;;
29246;SDS011;16272;48.188;9.964;2023-02-25T12:19:05;5.05;;;1.00;;
29246;SDS011;16272;48.188;9.964;2023-02-25T12:29:59;4.70;;;0.80;;
29246;SDS011;16272;48.188;9.964;2023-02-25T12:52:19;13.45;;;1.90;;
29246;SDS011;16272;48.188;9.964;2023-02-25T12:57:45;4.63;;;0.80;;
29246;SDS011;16272;48.188;9.964;2023-02-25T13:08:59;7.00;;;0.90;;
29246;SDS011;16272;48.188;9.964;2023-02-25T13:25:52;4.13;;;0.82;;
29246;SDS011;16272;48.188;9.964;2023-02-25T13:44:55;4.18;;;0.80;;
29246;SDS011;16272;48.188;9.964;2023-02-25T13:56:17;5.47;;;1.03;;
29246;SDS011;16272;48.188;9.964;2023-02-25T14:28:48;6.10;;;0.90;;
29246;SDS011;16272;48.188;9.964;2023-02-25T14:31:23;3.88;;;0.73;;
29246;SDS011;16272;48.188;9.964;2023-02-25T15:08:22;72.53;;;7.05;;
29246;SDS011;16272;48.188;9.964;2023-02-25T15:13:36;6.00;;;0.80;;
29246;SDS011;16272;48.188;9.964;2023-02-25T15:22:10;4.28;;;1.00;;
29246;SDS011;16272;48.188;9.964;2023-02-25T15:24:41;7.38;;;0.98;;
29246;SDS011;16272;48.188;9.964;2023-02-25T15:32:24;7.60;;;0.80;;
29246;SDS011;16272;48.188;9.964;2023-02-25T15:35:03;5.07;;;1.05;;
29246;SDS011;16272;48.188;9.964;2023-02-25T15:37:36;6.80;;;1.30;;
29246;SDS011;16272;48.188;9.964;2023-02-25T15:42:54;4.17;;;1.07;;
29246;SDS011;16272;48.188;9.964;2023-02-25T15:59:10;5.80;;;0.98;;
29246;SDS011;16272;48.188;9.964;2023-02-25T16:15:29;5.40;;;1.20;;
29246;SDS011;16272;48.188;9.964;2023-02-25T16:18:11;5.65;;;1.45;;
29246;SDS011;16272;48.188;9.964;2023-02-25T16:20:41;7.53;;;1.30;;
29246;SDS011;16272;48.188;9.964;2023-02-25T16:23:11;5.95;;;1.70;;
29246;SDS011;16272;48.188;9.964;2023-02-25T16:31:12;6.15;;;1.58;;
29246;SDS011;16272;48.188;9.964;2023-02-25T16:36:32;6.10;;;1.13;;
29246;SDS011;16272;48.188;9.964;2023-02-25T16:39:14;5.63;;;1.00;;
29246;SDS011;16272;48.188;9.964;2023-02-25T16:41:43;7.55;;;1.33;;
29246;SDS011;16272;48.188;9.964;2023-02-25T16:44:09;7.25;;;1.13;;
29246;SDS011;16272;48.188;9.964;2023-02-25T16:46:42;6.53;;;1.13;;
29246;SDS011;16272;48.188;9.964;2023-02-25T16:49:18;5.32;;;1.10;;
29246;SDS011;16272;48.188;9.964;2023-02-25T16:51:47;6.22;;;1.00;;
29246;SDS011;16272;48.188;9.964;2023-02-25T16:54:36;5.00;;;1.33;;
29246;SDS011;16272;48.188;9.964;2023-02-25T16:57:04;7.15;;;1.40;;
29246;SDS011;16272;48.188;9.964;2023-02-25T16:59:35;5.73;;;0.90;;
29246;SDS011;16272;48.188;9.964;2023-02-25T17:04:40;4.68;;;0.82;;
29246;SDS011;16272;48.188;9.964;2023-02-25T17:07:11;6.50;;;0.88;;
29246;SDS011;16272;48.188;9.964;2023-02-25T17:12:12;6.07;;;1.17;;
29246;SDS011;16272;48.188;9.964;2023-02-25T17:14:45;7.55;;;1.40;;
29246;SDS011;16272;48.188;9.964;2023-02-25T17:17:31;6.28;;;1.17;;
29246;SDS011;16272;48.188;9.964;2023-02-25T17:20:01;5.03;;;1.13;;
29246;SDS011;16272;48.188;9.964;2023-02-25T17:22:30;5.45;;;1.20;;
29246;SDS011;16272;48.188;9.964;2023-02-25T17:24:57;5.83;;;1.20;;
29246;SDS011;16272;48.188;9.964;2023-02-25T17:27:24;5.95;;;1.20;;
29246;SDS011;16272;48.188;9.964;2023-02-25T17:29:50;6.20;;;1.55;;
29246;SDS011;16272;48.188;9.964;2023-02-25T17:32:20;4.67;;;1.00;;
29246;SDS011;16272;48.188;9.964;2023-02-25T17:34:47;5.97;;;1.10;;
29246;SDS011;16272;48.188;9.964;2023-02-25T17:37:16;9.60;;;1.92;;
29246;SDS011;16272;48.188;9.964;2023-02-25T17:39:43;8.50;;;2.22;;
29246;SDS011;16272;48.188;9.964;2023-02-25T17:42:29;6.25;;;1.40;;
29246;SDS011;16272;48.188;9.964;2023-02-25T17:44:54;11.07;;;1.30;;
29246;SDS011;16272;48.188;9.964;2023-02-25T17:47:22;6.55;;;1.20;;
29246;SDS011;16272;48.188;9.964;2023-02-25T17:49:50;7.05;;;1.77;;
29246;SDS011;16272;48.188;9.964;2023-02-25T17:52:18;6.10;;;1.38;;
29246;SDS011;16272;48.188;9.964;2023-02-25T17:54:47;6.60;;;1.90;;
29246;SDS011;16272;48.188;9.964;2023-02-25T17:57:18;7.93;;;1.70;;
29246;SDS011;16272;48.188;9.964;2023-02-25T18:02:31;5.70;;;1.40;;
29246;SDS011;16272;48.188;9.964;2023-02-25T18:07:43;5.23;;;1.10;;
29246;SDS011;16272;48.188;9.964;2023-02-25T18:12:57;8.82;;;1.92;;
29246;SDS011;16272;48.188;9.964;2023-02-25T18:15:26;9.02;;;2.50;;
29246;SDS011;16272;48.188;9.964;2023-02-25T18:18:01;9.75;;;3.45;;
29246;SDS011;16272;48.188;9.964;2023-02-25T18:23:02;10.20;;;2.70;;
29246;SDS011;16272;48.188;9.964;2023-02-25T18:25:41;7.80;;;2.63;;
29246;SDS011;16272;48.188;9.964;2023-02-25T18:28:10;9.20;;;2.70;;
29246;SDS011;16272;48.188;9.964;2023-02-25T18:30:39;20.13;;;7.68;;
29246;SDS011;16272;48.188;9.964;2023-02-25T18:33:05;21.97;;;9.20;;
29246;SDS011;16272;48.188;9.964;2023-02-25T18:35:31;29.93;;;12.07;;
29246;SDS011;16272;48.188;9.964;2023-02-25T18:37:57;22.13;;;9.60;;
29246;SDS011;16272;48.188;9.964;2023-02-25T18:40:28;17.58;;;7.32;;
29246;SDS011;16272;48.188;9.964;2023-02-25T18:42:54;8.57;;;2.08;;
29246;SDS011;16272;48.188;9.964;2023-02-25T18:45:21;6.43;;;1.30;;
29246;SDS011;16272;48.188;9.964;2023-02-25T18:47:48;5.68;;;1.05;;
29246;SDS011;16272;48.188;9.964;2023-02-25T18:50:14;4.35;;;1.00;;
29246;SDS011;16272;48.188;9.964;2023-02-25T18:52:40;7.20;;;2.07;;
29246;SDS011;16272;48.188;9.964;2023-02-25T18:55:06;7.95;;;1.67;;
29246;SDS011;16272;48.188;9.964;2023-02-25T18:57:34;7.20;;;2.22;;
29246;SDS011;16272;48.188;9.964;2023-02-25T18:59:59;8.97;;;2.13;;
29246;SDS011;16272;48.188;9.964;2023-02-25T19:02:26;7.17;;;1.83;;
29246;SDS011;16272;48.188;9.964;2023-02-25T19:04:57;6.88;;;1.60;;
29246;SDS011;16272;48.188;9.964;2023-02-25T19:07:23;6.80;;;1.63;;
29246;SDS011;16272;48.188;9.964;2023-02-25T19:09:50;7.20;;;1.70;;
29246;SDS011;16272;48.188;9.964;2023-02-25T19:12:15;7.20;;;1.50;;
29246;SDS011;16272;48.188;9.964;2023-02-25T19:14:42;7.60;;;1.85;;
29246;SDS011;16272;48.188;9.964;2023-02-25T19:17:12;7.37;;;1.83;;
29246;SDS011;16272;48.188;9.964;2023-02-25T19:19:39;7.40;;;2.13;;
29246;SDS011;16272;48.188;9.964;2023-02-25T19:22:07;8.18;;;2.33;;
29246;SDS011;16272;48.188;9.964;2023-02-25T19:24:34;17.38;;;5.78;;
29246;SDS011;16272;48.188;9.964;2023-02-25T19:27:00;23.73;;;9.23;;
29246;SDS011;16272;48.188;9.964;2023-02-25T19:29:25;22.03;;;8.10;;